Time;durP1;ratioP1;P1;durP2;ratioP2;P2;SDS_P1;SDS_P2;PMS_P1;PMS_P2;Temp;Humidity;BMP_temperature;BMP_pressure;BME280_temperature;BME280_humidity;BME280_pressure;Samples;Min_cycle;Max_cycle;Signal;HPM_P1;HPM_P2
2022/10/02 00:01:27;;;;;;;1.37;0.70;;;;;;;12.69;100.00;96675.47;5012953;28;101721;-62
2022/10/02 00:03:54;;;;;;;1.10;0.63;;;;;;;12.69;100.00;96680.81;5012911;28;102321;-62
2022/10/02 00:06:23;;;;;;;0.60;0.60;;;;;;;12.67;100.00;96680.25;5011868;28;102769;-62
2022/10/02 00:08:57;;;;;;;3.37;0.83;;;;;;;12.68;100.00;96688.03;5012994;28;101975;-62
2022/10/02 00:11:29;;;;;;;2.70;0.70;;;;;;;12.70;100.00;96688.56;5012772;28;102581;-62
2022/10/02 00:14:00;;;;;;;1.07;0.57;;;;;;;12.76;100.00;96676.06;5014219;28;103743;-62
2022/10/02 00:16:34;;;;;;;0.77;0.60;;;;;;;12.73;100.00;96676.56;5012481;28;102571;-62
2022/10/02 00:19:01;;;;;;;2.13;0.60;;;;;;;12.76;100.00;96676.06;5011722;28;103259;-62
2022/10/02 00:21:41;;;;;;;1.43;0.60;;;;;;;12.76;100.00;96671.50;5011051;28;102391;-62
2022/10/02 00:24:15;;;;;;;1.33;0.70;;;;;;;12.71;100.00;96674.16;5012251;28;104374;-62
2022/10/02 00:26:50;;;;;;;1.10;0.70;;;;;;;12.76;100.00;96676.84;5012084;28;103814;-62
2022/10/02 00:29:31;;;;;;;0.60;0.50;;;;;;;12.92;100.00;96675.09;5012574;28;101721;-62
2022/10/02 00:32:10;;;;;;;2.37;0.60;;;;;;;12.88;100.00;96671.34;5012323;28;102540;-62
2022/10/02 00:34:49;;;;;;;2.07;1.03;;;;;;;12.90;100.00;96683.38;5011864;28;103028;-62
2022/10/02 00:37:26;;;;;;;1.87;0.97;;;;;;;12.96;100.00;96682.38;5014273;28;101933;-62
2022/10/02 00:40:03;;;;;;;1.03;0.60;;;;;;;12.95;100.00;96683.41;5011947;28;103060;-62
2022/10/02 00:43:11;;;;;;;1.93;0.80;;;;;;;12.99;100.00;96686.38;5012091;28;102226;-62
2022/10/02 00:45:54;;;;;;;0.80;0.60;;;;;;;13.05;100.00;96693.34;4970397;28;102245;-62
2022/10/02 00:48:34;;;;;;;1.03;0.63;;;;;;;13.02;100.00;96681.31;4953082;28;105744;-62
2022/10/02 00:51:13;;;;;;;1.50;0.77;;;;;;;13.12;100.00;96678.72;4969679;28;102162;-62
2022/10/02 00:53:49;;;;;;;1.33;0.77;;;;;;;13.10;100.00;96675.53;4969572;28;102306;-62
2022/10/02 00:56:28;;;;;;;0.97;0.67;;;;;;;13.12;100.00;96675.22;4969026;28;102820;-62
2022/10/02 00:59:30;;;;;;;2.17;0.97;;;;;;;13.10;100.00;96677.38;4956851;28;101942;-62
2022/10/02 01:02:01;;;;;;;1.13;0.70;;;;;;;13.14;100.00;96678.47;4966271;28;102862;-62
2022/10/02 01:04:32;;;;;;;1.87;0.63;;;;;;;13.09;100.00;96684.56;4953245;28;101906;-62
2022/10/02 01:06:59;;;;;;;1.30;0.80;;;;;;;13.11;100.00;96693.13;4969813;28;102565;-62
2022/10/02 01:09:27;;;;;;;1.73;0.90;;;;;;;13.13;100.00;96688.34;4968948;28;102974;-62
2022/10/02 01:11:57;;;;;;;2.37;0.67;;;;;;;13.11;100.00;96695.00;4953260;28;102021;-62
2022/10/02 01:14:32;;;;;;;2.00;0.77;;;;;;;13.08;100.00;96700.88;4969412;28;102533;-62
2022/10/02 01:16:59;;;;;;;1.17;0.70;;;;;;;13.07;100.00;96699.22;4998943;28;103137;-62
2022/10/02 01:19:31;;;;;;;1.90;0.60;;;;;;;13.06;100.00;96708.31;5010263;28;102318;-62
2022/10/02 01:22:06;;;;;;;0.93;0.70;;;;;;;13.07;100.00;96704.56;5013016;28;103609;-62
2022/10/02 01:24:39;;;;;;;5.00;0.90;;;;;;;13.04;100.00;96705.09;5011613;28;101857;-62
2022/10/02 01:27:09;;;;;;;0.70;0.70;;;;;;;13.07;100.00;96700.06;5011539;28;102716;-62
2022/10/02 01:29:36;;;;;;;1.83;0.90;;;;;;;13.04;100.00;96705.09;5009564;28;105394;-62
2022/10/02 01:32:03;;;;;;;1.97;0.80;;;;;;;13.06;100.00;96702.97;5011396;28;101841;-62
2022/10/02 01:34:32;;;;;;;1.67;0.70;;;;;;;13.04;100.00;96707.78;5011394;28;102409;-62
2022/10/02 01:37:00;;;;;;;1.53;1.10;;;;;;;13.00;100.00;96704.00;5009138;28;106996;-62
2022/10/02 01:39:27;;;;;;;4.77;1.10;;;;;;;12.96;100.00;96710.91;5011743;28;101696;-62
2022/10/02 01:41:55;;;;;;;1.03;0.70;;;;;;;12.95;100.00;96722.63;5011243;28;103996;-62
2022/10/02 01:44:25;;;;;;;4.23;0.80;;;;;;;12.96;100.00;96727.75;5014153;28;102503;-62
2022/10/02 01:47:01;;;;;;;2.23;0.70;;;;;;;13.00;100.00;96720.84;5011184;28;103903;-62
2022/10/02 01:49:47;;;;;;;2.80;0.80;;;;;;;13.02;100.00;96731.28;5010441;28;101893;-62
2022/10/02 01:52:33;;;;;;;1.17;1.03;;;;;;;13.06;100.00;96733.16;5011020;28;101896;-62
2022/10/02 01:55:27;;;;;;;3.70;0.90;;;;;;;13.13;100.00;96740.94;5009522;28;105250;-62
2022/10/02 01:58:15;;;;;;;3.13;0.77;;;;;;;13.19;100.00;96742.59;5010562;28;103129;-62
2022/10/02 02:00:55;;;;;;;2.27;0.80;;;;;;;13.05;100.00;96741.41;5009441;28;101904;-62
2022/10/02 02:03:29;;;;;;;2.87;0.83;;;;;;;12.78;100.00;96740.66;5011187;28;102329;-62
2022/10/02 02:06:05;;;;;;;2.00;0.90;;;;;;;12.79;100.00;96756.41;5009572;28;102623;-62
2022/10/02 02:08:37;;;;;;;1.50;0.67;;;;;;;12.74;100.00;96742.22;5013044;28;101989;-62
2022/10/02 02:11:11;;;;;;;4.33;0.80;;;;;;;12.72;100.00;96736.34;5010536;28;102654;-62
2022/10/02 02:13:45;;;;;;;1.00;0.77;;;;;;;12.68;100.00;96743.25;5010624;28;101811;-62
2022/10/02 02:16:33;;;;;;;1.43;0.97;;;;;;;12.57;100.00;96752.22;5010849;28;102899;-62
2022/10/02 02:19:10;;;;;;;2.77;0.63;;;;;;;12.54;100.00;96753.53;5008830;28;106063;-61
2022/10/02 02:21:41;;;;;;;1.77;0.70;;;;;;;12.51;100.00;96753.22;5009283;28;101862;-62
2022/10/02 02:24:14;;;;;;;1.17;0.80;;;;;;;12.51;100.00;96742.56;5009099;28;105600;-62
2022/10/02 02:26:45;;;;;;;1.60;0.83;;;;;;;12.48;100.00;96729.75;5008601;28;103891;-62
2022/10/02 02:29:16;;;;;;;2.37;0.70;;;;;;;12.50;100.00;96735.63;5010738;28;101686;-62
2022/10/02 02:31:49;;;;;;;3.77;0.90;;;;;;;12.48;100.00;96751.09;5012061;28;105633;-62
2022/10/02 02:34:22;;;;;;;1.70;0.70;;;;;;;12.53;100.00;96761.81;5009063;28;101794;-62
2022/10/02 02:36:55;;;;;;;2.13;0.77;;;;;;;12.58;100.00;96767.16;5009053;28;104889;-62
2022/10/02 02:39:30;;;;;;;1.40;0.70;;;;;;;12.60;100.00;96759.72;5008451;28;105468;-62
2022/10/02 02:42:03;;;;;;;0.70;0.70;;;;;;;12.64;100.00;96758.16;5010460;28;101806;-62
2022/10/02 02:44:35;;;;;;;2.80;0.90;;;;;;;12.77;100.00;96757.72;5009031;28;104973;-62
2022/10/02 02:47:11;;;;;;;2.50;1.13;;;;;;;12.78;100.00;96752.16;5024869;28;105116;-62
2022/10/02 02:49:48;;;;;;;2.93;0.80;;;;;;;12.84;100.00;96750.31;5008768;28;102641;-62
2022/10/02 02:52:21;;;;;;;1.50;0.80;;;;;;;12.88;100.00;96744.22;5009935;28;102274;-62
2022/10/02 02:54:54;;;;;;;2.70;1.00;;;;;;;12.93;100.00;96744.22;5011017;28;101812;-62
2022/10/02 02:57:29;;;;;;;1.53;0.77;;;;;;;13.15;100.00;96736.97;5010148;28;102450;-62
2022/10/02 02:59:59;;;;;;;2.83;0.73;;;;;;;13.14;100.00;96726.53;5008277;28;105454;-62
2022/10/02 03:02:28;;;;;;;3.03;0.93;;;;;;;13.20;100.00;96733.50;5008853;28;101807;-62
2022/10/02 03:04:55;;;;;;;3.13;0.80;;;;;;;13.27;100.00;96742.09;5008416;28;105679;-62
2022/10/02 03:07:23;;;;;;;1.67;0.80;;;;;;;13.31;100.00;96732.50;5009547;28;103312;-62
2022/10/02 03:10:01;;;;;;;3.53;1.03;;;;;;;13.34;100.00;96740.81;5025574;28;101896;-62
2022/10/02 03:12:41;;;;;;;5.23;1.00;;;;;;;13.38;100.00;96728.53;5008212;28;105259;-62
2022/10/02 03:15:23;;;;;;;4.13;1.20;;;;;;;13.39;100.00;96732.00;5011551;28;105667;-62
2022/10/02 03:18:20;;;;;;;1.50;0.80;;;;;;;13.49;100.00;96732.06;5010818;28;103882;-62
2022/10/02 03:20:57;;;;;;;2.27;0.80;;;;;;;13.57;100.00;96726.22;5011499;28;104535;-62
2022/10/02 03:23:31;;;;;;;2.83;0.93;;;;;;;13.53;100.00;96725.94;5012189;28;101934;-62
2022/10/02 03:26:05;;;;;;;3.53;0.80;;;;;;;13.54;100.00;96729.41;5013688;28;102867;-62
2022/10/02 03:28:37;;;;;;;1.67;0.70;;;;;;;13.51;100.00;96736.09;5012701;28;103131;-62
2022/10/02 03:31:04;;;;;;;1.43;0.60;;;;;;;13.48;100.00;96733.13;5013536;28;101736;-62
2022/10/02 03:33:36;;;;;;;3.03;0.93;;;;;;;13.58;100.00;96736.63;5013174;28;102581;-62
2022/10/02 03:36:05;;;;;;;1.77;0.80;;;;;;;13.57;100.00;96742.28;5011314;28;103999;-62
2022/10/02 03:38:34;;;;;;;2.87;1.00;;;;;;;13.61;100.00;96732.66;5016488;28;102379;-62
2022/10/02 03:41:00;;;;;;;2.30;0.97;;;;;;;13.57;100.00;96745.72;5011350;28;103792;-62
2022/10/02 03:43:29;;;;;;;2.03;0.80;;;;;;;13.57;100.00;96729.69;5011926;28;101915;-62
2022/10/02 03:45:57;;;;;;;2.47;1.00;;;;;;;13.60;100.00;96731.03;5013103;28;102510;-62
2022/10/02 03:48:24;;;;;;;4.00;0.97;;;;;;;13.57;100.00;96737.72;5012452;28;103103;-62
2022/10/02 03:50:53;;;;;;;1.90;0.87;;;;;;;13.61;100.00;96730.78;5012829;28;101843;-62
2022/10/02 03:53:23;;;;;;;2.77;1.30;;;;;;;13.57;100.00;96734.25;5013050;28;102293;-62
2022/10/02 03:55:55;;;;;;;2.20;0.80;;;;;;;13.59;100.00;96738.28;5010835;28;104834;-62
2022/10/02 03:58:22;;;;;;;4.47;1.10;;;;;;;13.53;100.00;96738.50;5011145;28;102026;-62
2022/10/02 04:00:59;;;;;;;3.93;1.40;;;;;;;13.55;100.00;96734.50;5014458;28;104949;-62
2022/10/02 04:03:30;;;;;;;4.40;0.77;;;;;;;13.48;100.00;96731.28;5011589;28;101705;-62
2022/10/02 04:06:03;;;;;;;3.03;0.80;;;;;;;13.48;100.00;96725.94;5011457;28;105632;-62
2022/10/02 04:08:36;;;;;;;2.90;1.00;;;;;;;13.41;100.00;96714.66;5010874;28;105078;-62
2022/10/02 04:11:08;;;;;;;3.10;1.13;;;;;;;13.34;100.00;96722.09;5013036;28;101819;-62
2022/10/02 04:13:40;;;;;;;2.07;0.73;;;;;;;13.25;100.00;96728.19;4994676;28;105277;-62
2022/10/02 04:16:13;;;;;;;2.60;1.10;;;;;;;13.15;100.00;96728.94;5012460;28;101753;-62
2022/10/02 04:18:48;;;;;;;2.73;0.87;;;;;;;13.10;100.00;96720.91;5012874;28;101983;-62
2022/10/02 04:21:29;;;;;;;3.07;1.10;;;;;;;13.04;100.00;96718.44;5012371;28;101760;-62
2022/10/02 04:24:04;;;;;;;2.87;0.93;;;;;;;13.00;100.00;96725.34;5015362;28;104507;-62
2022/10/02 04:26:35;;;;;;;3.00;0.90;;;;;;;12.91;100.00;96729.56;5012620;28;101669;-62
2022/10/02 04:29:12;;;;;;;4.17;1.00;;;;;;;12.85;100.00;96727.88;5009660;28;105458;-62
2022/10/02 04:31:39;;;;;;;2.57;0.80;;;;;;;12.86;100.00;96727.63;5012547;28;101951;-62
2022/10/02 04:34:10;;;;;;;3.97;1.10;;;;;;;12.89;100.00;96723.66;5012431;28;102829;-62
2022/10/02 04:36:58;;;;;;;1.20;0.80;;;;;;;12.86;100.00;96724.19;5012060;28;102581;-62
2022/10/02 04:39:36;;;;;;;2.67;1.07;;;;;;;12.81;100.00;96724.16;5012404;28;101823;-62
2022/10/02 04:42:19;;;;;;;3.17;1.27;;;;;;;12.75;100.00;96717.16;5010805;28;105114;-62
2022/10/02 04:45:09;;;;;;;2.67;1.20;;;;;;;12.70;100.00;96720.56;5010180;28;104806;-62
2022/10/02 04:48:14;;;;;;;5.60;0.97;;;;;;;12.70;100.00;96715.25;5014295;28;101818;-62
2022/10/02 04:50:53;;;;;;;2.30;0.93;;;;;;;12.69;100.00;96718.16;5011577;28;102643;-62
2022/10/02 04:53:53;;;;;;;3.50;1.00;;;;;;;12.63;100.00;96709.31;5010804;28;101716;-62
2022/10/02 04:56:38;;;;;;;2.63;1.40;;;;;;;12.58;100.00;96719.13;5010022;28;105944;-62
2022/10/02 04:59:17;;;;;;;3.10;1.07;;;;;;;12.55;100.00;96715.13;5010086;28;106071;-62
2022/10/02 05:01:57;;;;;;;3.27;1.00;;;;;;;12.56;100.00;96716.75;5010638;28;102197;-62
2022/10/02 05:04:55;;;;;;;1.93;0.90;;;;;;;12.51;100.00;96718.56;5010640;28;104313;-62
2022/10/02 05:08:03;;;;;;;1.50;1.07;;;;;;;12.46;100.00;96719.31;5011099;28;103200;-62
2022/10/02 05:10:59;;;;;;;4.30;1.10;;;;;;;12.48;100.00;96721.75;5012186;28;101992;-62
2022/10/02 05:13:42;;;;;;;2.93;0.90;;;;;;;12.47;100.00;96714.78;5009945;28;104118;-62
2022/10/02 05:16:26;;;;;;;1.30;0.80;;;;;;;12.43;100.00;96713.69;5011923;28;101958;-62
2022/10/02 05:19:07;;;;;;;2.63;1.00;;;;;;;12.47;100.00;96710.25;5010409;28;105487;-62
2022/10/02 05:21:49;;;;;;;1.70;0.90;;;;;;;12.45;100.00;96711.56;5009647;28;105470;-62
2022/10/02 05:24:33;;;;;;;2.10;1.03;;;;;;;12.46;100.00;96723.84;5011862;28;101837;-62
2022/10/02 05:27:13;;;;;;;2.93;1.00;;;;;;;12.42;100.00;96712.09;5011743;28;101740;-62
2022/10/02 05:30:04;;;;;;;1.53;0.80;;;;;;;12.43;100.00;96703.81;5011011;28;103203;-62
2022/10/02 05:33:07;;;;;;;3.27;1.20;;;;;;;12.45;100.00;96707.06;5011557;28;101749;-62
2022/10/02 05:36:09;;;;;;;1.07;0.90;;;;;;;12.47;100.00;96710.25;5012934;28;105298;-62
2022/10/02 05:38:57;;;;;;;3.63;1.10;;;;;;;12.52;100.00;96712.16;5011524;28;101967;-62
2022/10/02 05:41:34;;;;;;;3.03;1.00;;;;;;;12.53;100.00;96708.44;5011073;28;102663;-62
2022/10/02 05:44:07;;;;;;;1.70;0.80;;;;;;;12.55;100.00;96719.66;5009168;28;105833;-62
2022/10/02 05:46:40;;;;;;;2.43;1.00;;;;;;;12.59;100.00;96726.09;5011181;28;101701;-62
2022/10/02 05:49:15;;;;;;;2.60;1.63;;;;;;;12.61;100.00;96726.66;5009797;28;104492;-62
2022/10/02 05:51:49;;;;;;;1.47;0.80;;;;;;;12.59;100.00;96734.09;5010086;28;104460;-62
2022/10/02 05:54:25;;;;;;;1.67;1.00;;;;;;;12.59;100.00;96728.78;5011166;28;101732;-62
2022/10/02 05:56:58;;;;;;;3.00;1.23;;;;;;;12.59;100.00;96728.78;5009493;28;103430;-62
2022/10/02 05:59:37;;;;;;;2.03;1.13;;;;;;;12.58;100.00;96727.97;5013760;28;101722;-62
2022/10/02 06:02:14;;;;;;;2.67;1.00;;;;;;;12.54;100.00;96726.06;5011197;28;102522;-62
2022/10/02 06:04:46;;;;;;;3.33;1.03;;;;;;;12.53;100.00;96724.47;5008914;28;105795;-62
2022/10/02 06:07:17;;;;;;;3.10;1.80;;;;;;;12.56;100.00;96723.94;5009317;28;101824;-62
2022/10/02 06:09:48;;;;;;;2.70;1.00;;;;;;;12.58;100.00;96721.81;5010940;28;102576;-62
2022/10/02 06:12:19;;;;;;;2.30;1.00;;;;;;;12.62;100.00;96739.75;5010713;28;102649;-62
2022/10/02 06:14:54;;;;;;;3.20;1.00;;;;;;;12.70;100.00;96735.81;5010493;28;102131;-62
2022/10/02 06:17:26;;;;;;;1.87;1.20;;;;;;;12.71;100.00;96737.41;5009432;28;105274;-62
2022/10/02 06:20:00;;;;;;;3.53;1.30;;;;;;;12.76;100.00;96740.13;5010240;28;102786;-62
2022/10/02 06:22:30;;;;;;;4.47;2.00;;;;;;;12.76;100.00;96740.13;5014365;28;102075;-62
2022/10/02 06:25:02;;;;;;;8.17;4.17;;;;;;;12.75;100.00;96743.84;5009760;28;102846;-62
2022/10/02 06:27:36;;;;;;;5.57;2.30;;;;;;;12.75;100.00;96749.97;5010957;28;101994;-62
2022/10/02 06:30:10;;;;;;;3.73;2.10;;;;;;;12.75;100.00;96754.53;5010757;28;102938;-62
2022/10/02 06:32:42;;;;;;;4.80;1.40;;;;;;;12.78;100.00;96756.66;5010386;28;102837;-62
2022/10/02 06:35:12;;;;;;;6.03;5.33;;;;;;;12.77;100.00;96760.41;5008880;28;101939;-62
2022/10/02 06:37:51;;;;;;;3.07;1.70;;;;;;;12.81;100.00;96769.50;5009202;28;105502;-62
2022/10/02 06:40:44;;;;;;;2.70;1.20;;;;;;;12.89;100.00;96769.03;5008448;28;105344;-62
2022/10/02 06:43:26;;;;;;;3.13;1.73;;;;;;;12.90;100.00;96783.97;5008955;28;101798;-62
2022/10/02 06:46:07;;;;;;;4.70;1.67;;;;;;;12.95;100.00;96789.38;5011755;28;105492;-62
2022/10/02 06:48:41;;;;;;;3.00;0.90;;;;;;;12.96;100.00;96788.31;5010413;28;101766;-62
2022/10/02 06:51:20;;;;;;;1.83;1.10;;;;;;;12.96;100.00;96793.66;5010204;28;102853;-62
2022/10/02 06:54:07;;;;;;;3.13;1.23;;;;;;;12.97;100.00;96795.31;5007832;28;105825;-62
2022/10/02 06:56:49;;;;;;;2.80;1.23;;;;;;;13.00;100.00;96800.13;5009873;28;101884;-62
2022/10/02 06:59:33;;;;;;;2.20;1.40;;;;;;;12.96;100.00;96804.34;5010302;28;102440;-62
2022/10/02 07:02:09;;;;;;;2.67;0.97;;;;;;;13.01;100.00;96807.88;5009667;28;103086;-62
2022/10/02 07:04:59;;;;;;;5.73;1.60;;;;;;;13.00;100.00;96800.13;5009873;28;101709;-62
2022/10/02 07:07:43;;;;;;;2.90;1.20;;;;;;;12.98;100.00;96807.59;5010475;28;102464;-62
2022/10/02 07:10:17;;;;;;;3.00;1.33;;;;;;;13.00;100.00;96808.13;5013157;28;102517;-62
2022/10/02 07:13:10;;;;;;;5.07;2.97;;;;;;;12.97;100.00;96811.31;5010351;28;102240;-62
2022/10/02 07:15:55;;;;;;;4.67;1.33;;;;;;;12.98;100.00;96820.94;5009531;28;102561;-62
2022/10/02 07:18:41;;;;;;;4.03;1.47;;;;;;;13.00;100.00;96816.13;5008701;28;101966;-62
2022/10/02 07:21:21;;;;;;;2.07;1.00;;;;;;;12.95;100.00;96813.38;5008255;28;103410;-62
2022/10/02 07:23:57;;;;;;;4.43;1.30;;;;;;;12.93;100.00;96818.19;5009478;28;102538;-62
2022/10/02 07:26:42;;;;;;;3.10;1.00;;;;;;;12.93;100.00;96823.53;5010074;28;102161;-62
2022/10/02 07:29:22;;;;;;;2.73;1.23;;;;;;;12.82;100.00;96827.16;5009723;28;102452;-62
2022/10/02 07:32:04;;;;;;;3.20;1.43;;;;;;;12.81;100.00;96828.22;5012990;28;102725;-62
2022/10/02 07:34:46;;;;;;;3.10;1.70;;;;;;;12.76;100.00;96828.19;5009646;28;102804;-62
2022/10/02 07:37:24;;;;;;;3.87;1.80;;;;;;;12.72;100.00;96830.56;5007443;28;103798;-62
2022/10/02 07:40:09;;;;;;;4.50;2.10;;;;;;;12.66;100.00;96836.09;5009935;28;101838;-62
2022/10/02 07:42:51;;;;;;;3.47;1.70;;;;;;;12.66;100.00;96831.56;5009843;28;102837;-62
2022/10/02 07:45:29;;;;;;;4.47;1.57;;;;;;;12.60;100.00;96829.88;5009199;28;102767;-62
2022/10/02 07:48:26;;;;;;;4.93;1.77;;;;;;;12.57;100.00;96834.91;5009481;28;101727;-62
2022/10/02 07:51:03;;;;;;;4.50;1.67;;;;;;;12.48;100.00;96842.56;5004981;28;103073;-62
2022/10/02 07:53:39;;;;;;;4.13;1.50;;;;;;;12.46;100.00;96835.88;5007452;28;104050;-62
2022/10/02 07:56:10;;;;;;;4.17;1.73;;;;;;;12.39;100.00;96836.09;5012463;28;101796;-62
2022/10/02 07:58:41;;;;;;;6.30;2.07;;;;;;;12.41;100.00;96838.47;5007247;28;105374;-62
2022/10/02 08:01:13;;;;;;;4.40;1.20;;;;;;;12.41;100.00;96844.63;5009642;28;101712;-62
2022/10/02 08:03:45;;;;;;;4.83;2.60;;;;;;;12.39;100.00;96843.28;5011429;28;102241;-62
2022/10/02 08:06:14;;;;;;;3.37;1.40;;;;;;;12.38;100.00;96839.78;5010769;28;103956;-62
2022/10/02 08:08:50;;;;;;;4.43;1.50;;;;;;;12.35;100.00;96844.81;5012626;28;101877;-62
2022/10/02 08:11:22;;;;;;;5.57;2.43;;;;;;;12.36;100.00;96846.44;5012920;28;102501;-62
2022/10/02 08:13:54;;;;;;;3.90;1.67;;;;;;;12.29;100.00;96846.63;5012241;28;102520;-62
2022/10/02 08:16:24;;;;;;;3.53;1.70;;;;;;;12.26;100.00;96831.13;5012693;28;101854;-62
2022/10/02 08:18:57;;;;;;;3.50;1.47;;;;;;;12.29;100.00;96840.50;5015596;28;102877;-62
2022/10/02 08:21:27;;;;;;;1.90;1.53;;;;;;;12.27;100.00;96835.41;5012742;28;101891;-62
2022/10/02 08:23:59;;;;;;;2.80;1.30;;;;;;;12.23;100.00;96831.63;5012513;28;102881;-62
2022/10/02 08:26:31;;;;;;;3.77;1.60;;;;;;;12.25;100.00;96837.53;5010699;28;105492;-62
2022/10/02 08:29:04;;;;;;;3.13;1.23;;;;;;;12.24;100.00;96827.91;5012403;28;102101;-62
2022/10/02 08:31:32;;;;;;;3.30;1.00;;;;;;;12.19;100.00;96822.53;5012678;28;102347;-62
2022/10/02 08:34:04;;;;;;;3.97;1.40;;;;;;;12.20;100.00;96817.97;5011568;28;102578;-62
2022/10/02 08:37:08;;;;;;;5.23;1.63;;;;;;;12.18;100.00;96806.75;5010848;28;101780;-62
2022/10/02 08:40:00;;;;;;;6.00;2.30;;;;;;;12.16;100.00;96808.88;5011966;28;102393;-62
2022/10/02 08:43:12;;;;;;;4.10;1.83;;;;;;;12.16;100.00;96806.22;5015289;28;102560;-62
2022/10/02 08:46:03;;;;;;;4.03;1.70;;;;;;;12.12;100.00;96807.78;4963454;28;102903;-62
2022/10/02 08:48:56;;;;;;;3.33;1.70;;;;;;;12.06;100.00;96803.44;5010123;28;105181;-62
2022/10/02 08:51:59;;;;;;;3.47;1.70;;;;;;;12.03;100.00;96803.91;5010630;28;101826;-62
2022/10/02 08:55:14;;;;;;;4.60;1.67;;;;;;;12.02;100.00;96797.81;5010527;28;102810;-62
2022/10/02 08:58:12;;;;;;;3.03;1.77;;;;;;;12.01;100.00;96796.19;5011584;28;102830;-62
2022/10/02 09:00:49;;;;;;;2.33;1.60;;;;;;;11.99;100.00;96790.28;5010358;28;102002;-62
2022/10/02 09:03:58;;;;;;;5.47;1.97;;;;;;;11.99;100.00;96792.94;5010470;28;105411;-62
2022/10/02 09:07:00;;;;;;;4.17;1.60;;;;;;;11.95;100.00;96780.38;4956145;28;105895;-62
2022/10/02 09:10:08;;;;;;;3.10;1.50;;;;;;;11.97;100.00;96783.59;5015399;28;101981;-62
2022/10/02 09:13:25;;;;;;;3.93;1.70;;;;;;;11.92;100.00;96776.34;5011365;28;103212;-62
2022/10/02 09:16:08;;;;;;;3.27;1.97;;;;;;;11.94;100.00;96757.47;5012009;28;101732;-62
2022/10/02 09:18:50;;;;;;;5.03;1.90;;;;;;;11.93;100.00;96750.53;5010132;28;105348;-62
2022/10/02 09:21:19;;;;;;;7.10;3.40;;;;;;;11.96;100.00;96740.16;5011058;28;102644;-62
2022/10/02 09:24:34;;;;;;;5.80;3.20;;;;;;;12.04;100.00;96736.25;5010231;28;101878;-62
2022/10/02 09:27:43;;;;;;;7.50;3.40;;;;;;;12.13;100.00;96730.22;5010174;28;105468;-62
2022/10/02 09:33:38;;;;;;;4.43;2.60;;;;;;;12.28;100.00;96713.56;5050624;27;101635;-62
2022/10/02 09:36:41;;;;;;;3.43;2.37;;;;;;;12.38;100.00;96716.31;5032739;27;103314;-62
2022/10/02 09:39:35;;;;;;;8.10;3.90;;;;;;;12.35;100.00;96704.28;5045267;27;101788;-62
2022/10/02 09:42:28;;;;;;;6.47;3.43;;;;;;;12.33;100.00;96708.25;5047229;27;101707;-62
2022/10/02 09:45:36;;;;;;;7.07;3.80;;;;;;;12.49;100.00;96704.69;5046649;27;103172;-62
2022/10/02 09:48:44;;;;;;;4.40;2.20;;;;;;;12.53;100.00;96705.78;5047115;27;101725;-62
2022/10/02 09:52:00;;;;;;;5.17;2.77;;;;;;;12.50;100.00;96698.28;5047118;27;102865;-62
2022/10/02 09:55:21;;;;;;;2.67;1.50;;;;;;;12.46;100.00;96691.84;5044745;27;105885;-62
2022/10/02 09:58:21;;;;;;;7.13;3.90;;;;;;;12.53;100.00;96684.44;4968239;28;101902;-62
2022/10/02 10:01:11;;;;;;;4.63;3.97;;;;;;;12.59;100.00;96670.88;4932216;28;103215;-62
2022/10/02 10:04:07;;;;;;;3.37;2.50;;;;;;;12.51;100.00;96670.53;4964515;28;101896;-62
2022/10/02 10:07:06;;;;;;;3.30;2.20;;;;;;;12.48;100.00;96663.84;4947926;28;105362;-62
2022/10/02 10:10:05;;;;;;;5.40;4.00;;;;;;;12.59;100.00;96662.06;4943609;28;105840;-62
2022/10/02 10:13:06;;;;;;;4.13;3.20;;;;;;;12.68;100.00;96657.84;4964347;28;102107;-62
2022/10/02 10:16:10;;;;;;;6.07;4.40;;;;;;;12.81;100.00;96647.53;4964273;28;102844;-62
2022/10/02 10:19:21;;;;;;;11.63;8.90;;;;;;;12.81;100.00;96647.53;4964111;28;103082;-62
2022/10/02 10:22:13;;;;;;;14.87;10.70;;;;;;;12.85;100.00;96645.16;4964148;28;102787;-62
2022/10/02 10:25:26;;;;;;;6.63;3.53;;;;;;;13.02;100.00;96648.50;4966264;28;103173;-62
2022/10/02 10:28:28;;;;;;;3.60;2.70;;;;;;;13.29;100.00;96627.78;4943428;27;102228;-62
2022/10/02 10:31:22;;;;;;;2.90;1.63;;;;;;;13.52;100.00;96620.13;5046201;27;102448;-62
2022/10/02 10:34:22;;;;;;;3.00;2.50;;;;;;;13.63;100.00;96618.28;5001091;27;102662;-62
2022/10/02 10:40:20;;;;;;;2.20;1.60;;;;;;;13.80;100.00;96608.16;5046563;27;102728;-62
2022/10/02 10:43:41;;;;;;;3.03;1.77;;;;;;;14.05;100.00;96600.16;5041721;27;102609;-62
2022/10/02 10:46:26;;;;;;;3.30;2.67;;;;;;;13.99;100.00;96610.06;5032336;27;101990;-62
2022/10/02 10:49:11;;;;;;;4.17;2.77;;;;;;;14.09;100.00;96601.25;5032644;28;102554;-62
2022/10/02 10:51:44;;;;;;;8.20;6.20;;;;;;;14.11;100.00;96610.59;5035438;28;102576;-62
2022/10/02 10:54:52;;;;;;;1.60;1.43;;;;;;;14.34;100.00;96598.63;5031117;28;105447;-62
2022/10/02 10:57:33;;;;;;;7.40;5.97;;;;;;;14.74;100.00;96593.19;5030331;28;105429;-62
2022/10/02 11:00:17;;;;;;;2.23;2.03;;;;;;;14.92;100.00;96592.59;5032329;27;101735;-62
2022/10/02 11:03:06;;;;;;;3.63;3.00;;;;;;;14.89;100.00;96595.84;5032379;28;103860;-62
2022/10/02 11:06:06;;;;;;;13.03;8.20;;;;;;;14.91;100.00;96593.69;5031629;28;102570;-62
2022/10/02 11:09:13;;;;;;;3.57;3.07;;;;;;;15.06;100.00;96599.81;5028425;28;101988;-62
2022/10/02 11:11:57;;;;;;;5.20;4.67;;;;;;;15.07;100.00;96587.22;5016591;28;105592;-62
2022/10/02 11:14:35;;;;;;;4.20;3.80;;;;;;;15.27;100.00;96592.50;5030004;28;105100;-62
2022/10/02 11:17:37;;;;;;;1.97;1.70;;;;;;;15.62;100.00;96587.78;5034193;28;101894;-62
2022/10/02 11:20:22;;;;;;;2.40;1.63;;;;;;;15.51;100.00;96580.06;5023329;28;105605;-62
2022/10/02 11:23:20;;;;;;;1.60;1.50;;;;;;;15.60;100.00;96581.88;5030748;28;101830;-62
2022/10/02 11:26:03;;;;;;;1.50;1.40;;;;;;;15.61;100.00;96577.34;5030706;28;105101;-62
2022/10/02 11:28:58;;;;;;;5.63;5.03;;;;;;;15.71;100.00;96572.75;5029679;28;105507;-62
2022/10/02 11:31:54;;;;;;;1.30;1.20;;;;;;;15.86;100.00;96559.19;5030060;28;102702;-62
2022/10/02 11:35:00;;;;;;;0.67;0.67;;;;;;;15.91;100.00;96561.84;5031984;28;102884;-62
2022/10/02 11:37:45;;;;;;;0.80;0.80;;;;;;;16.16;100.00;96558.19;5020876;28;105782;-62
2022/10/02 11:40:33;;;;;;;2.83;0.40;;;;;;;16.18;100.00;96556.81;5030231;28;101841;-62
2022/10/02 11:43:21;;;;;;;1.10;0.70;;;;;;;16.39;100.00;96552.09;5033248;28;104797;-62
2022/10/02 11:46:13;;;;;;;0.80;0.60;;;;;;;16.46;100.00;96525.75;5030316;28;101886;-62
2022/10/02 11:49:07;;;;;;;0.87;0.70;;;;;;;16.37;100.00;96527.41;5021825;28;105778;-62
2022/10/02 11:51:53;;;;;;;0.60;0.60;;;;;;;16.39;100.00;96523.38;5029483;28;105571;-62
2022/10/02 11:54:29;;;;;;;1.20;0.60;;;;;;;16.36;100.00;96507.00;5029392;28;101996;-62
2022/10/02 11:57:13;;;;;;;0.90;0.90;;;;;;;16.44;100.00;96501.03;5029779;28;104826;-62
2022/10/02 12:00:04;;;;;;;0.77;0.70;;;;;;;16.56;100.00;96491.53;5029530;28;105759;-62
2022/10/02 12:02:46;;;;;;;0.50;0.50;;;;;;;16.62;100.00;96486.91;5028523;27;101696;-62
2022/10/02 12:05:24;;;;;;;0.50;0.50;;;;;;;16.67;100.00;96476.13;5029962;28;105535;-62
2022/10/02 12:08:00;;;;;;;0.83;0.83;;;;;;;16.74;100.00;96476.56;5032862;27;101889;-62
2022/10/02 12:10:41;;;;;;;0.63;0.63;;;;;;;16.86;100.00;96477.75;5029790;28;106285;-62
2022/10/02 12:13:40;;;;;;;0.57;0.57;;;;;;;16.84;100.00;96479.13;5029092;28;105410;-62
2022/10/02 12:16:18;;;;;;;0.40;0.40;;;;;;;16.88;100.00;96464.81;5014714;27;102037;-62
2022/10/02 12:19:00;;;;;;;0.87;0.80;;;;;;;16.85;100.00;96459.22;5029880;28;106047;-62
2022/10/02 12:27:41;;;;;;;0.70;0.60;;;;;;;16.94;100.00;96460.22;5031220;27;102486;-62
2022/10/02 12:30:12;;;;;;;0.60;0.60;;;;;;;16.87;100.00;96455.19;5032197;28;105281;-62
2022/10/02 12:33:02;;;;;;;1.00;0.90;;;;;;;16.85;100.00;96448.50;5030463;28;102358;-62
2022/10/02 12:35:40;;;;;;;0.80;0.70;;;;;;;16.85;100.00;96448.50;5028539;28;104179;-62